createdAt,value
2023-02-06T00:01:33.339Z,-3.42
2023-02-06T00:03:45.892Z,-3.40
2023-02-06T00:06:00.231Z,-3.39
2023-02-06T00:08:12.846Z,-3.37
2023-02-06T00:10:25.435Z,-3.31
2023-02-06T00:12:37.938Z,-3.31
2023-02-06T00:14:50.507Z,-3.31
2023-02-06T00:17:03.127Z,-3.27
2023-02-06T00:19:15.690Z,-3.26
2023-02-06T00:21:29.708Z,-3.30
2023-02-06T00:23:42.380Z,-3.29
2023-02-06T00:25:54.887Z,-3.28
2023-02-06T00:28:07.444Z,-3.29
2023-02-06T00:30:20.212Z,-3.30
2023-02-06T00:32:34.776Z,-3.32
2023-02-06T00:34:47.399Z,-3.30
2023-02-06T00:36:59.958Z,-3.26
2023-02-06T00:39:12.454Z,-3.26
2023-02-06T00:41:24.984Z,-3.26
2023-02-06T00:43:37.706Z,-3.26
2023-02-06T00:45:54.551Z,-3.27
2023-02-06T00:48:09.128Z,-3.27
2023-02-06T00:50:22.007Z,-3.24
2023-02-06T00:52:34.676Z,-3.22
2023-02-06T00:54:47.201Z,-3.23
2023-02-06T00:56:59.736Z,-3.24
2023-02-06T00:59:12.272Z,-3.22
2023-02-06T01:01:26.352Z,-3.19
2023-02-06T01:03:39.062Z,-3.17
2023-02-06T01:05:51.889Z,-3.16
2023-02-06T01:08:04.756Z,-3.18
2023-02-06T01:10:17.599Z,-3.24
2023-02-06T01:12:30.236Z,-3.24
2023-02-06T01:14:42.790Z,-3.31
2023-02-06T01:16:55.414Z,-3.40
2023-02-06T01:19:07.930Z,-3.46
2023-02-06T01:21:23.287Z,-3.49
2023-02-06T01:23:36.863Z,-3.49
2023-02-06T01:25:49.422Z,-3.51
2023-02-06T01:28:02.037Z,-3.54
2023-02-06T01:30:14.681Z,-3.56
2023-02-06T01:32:27.268Z,-3.59
2023-02-06T01:34:39.840Z,-3.61
2023-02-06T01:36:52.460Z,-3.64
2023-02-06T01:39:06.553Z,-3.69
2023-02-06T01:41:22.395Z,-3.76
2023-02-06T01:43:38.539Z,-3.82
2023-02-06T01:45:51.474Z,-3.87
2023-02-06T01:48:08.868Z,-3.92
2023-02-06T01:50:21.967Z,-3.96
2023-02-06T01:52:34.920Z,-4.00
2023-02-06T01:54:57.483Z,-4.01
2023-02-06T01:57:11.886Z,-4.00
2023-02-06T01:59:26.054Z,-4.00
2023-02-06T02:01:38.826Z,-3.99
2023-02-06T02:03:56.105Z,-3.96
2023-02-06T02:06:13.630Z,-3.98
2023-02-06T02:08:36.646Z,-3.99
2023-02-06T02:10:49.150Z,-4.01
2023-02-06T02:13:01.760Z,-4.00
2023-02-06T02:15:14.423Z,-3.97
2023-02-06T02:17:44.105Z,-3.92
2023-02-06T02:20:28.015Z,-3.94
2023-02-06T02:22:50.967Z,-4.01
2023-02-06T02:25:12.662Z,-4.01
2023-02-06T02:27:40.582Z,-3.98
2023-02-06T02:30:10.556Z,-3.98
2023-02-06T02:32:49.984Z,-4.03
2023-02-06T02:35:25.747Z,-4.04
2023-02-06T02:38:07.590Z,-4.00
2023-02-06T02:40:33.138Z,-3.95
2023-02-06T02:43:28.662Z,-3.93
2023-02-06T02:45:51.319Z,-3.92
2023-02-06T02:48:15.140Z,-3.88
2023-02-06T02:50:29.350Z,-3.84
2023-02-06T02:52:42.343Z,-3.84
2023-02-06T02:54:54.879Z,-3.85
2023-02-06T02:57:22.734Z,-3.89
2023-02-06T02:59:38.750Z,-3.92
2023-02-06T03:01:58.844Z,-3.96
2023-02-06T03:04:25.732Z,-4.03
2023-02-06T03:07:14.831Z,-4.06
2023-02-06T03:09:53.632Z,-4.05
2023-02-06T03:12:12.746Z,-4.06
2023-02-06T03:14:35.426Z,-4.10
2023-02-06T03:16:52.300Z,-4.18
2023-02-06T03:19:35.757Z,-4.30
2023-02-06T03:21:49.901Z,-4.36
2023-02-06T03:24:08.972Z,-4.29
2023-02-06T03:26:26.160Z,-4.27
2023-02-06T03:28:44.267Z,-4.22
2023-02-06T03:31:00.033Z,-4.16
2023-02-06T03:33:15.514Z,-4.12
2023-02-06T03:35:35.933Z,-4.09
2023-02-06T03:37:49.695Z,-4.06
2023-02-06T03:40:04.349Z,-4.01
2023-02-06T03:42:17.627Z,-3.97
2023-02-06T03:44:38.005Z,-3.92
2023-02-06T03:46:53.845Z,-3.89
2023-02-06T03:49:11.035Z,-3.87
2023-02-06T03:51:31.042Z,-3.86
2023-02-06T03:53:46.045Z,-3.89
2023-02-06T03:56:04.294Z,-3.94
2023-02-06T03:58:16.923Z,-3.96
2023-02-06T04:00:31.986Z,-3.94
2023-02-06T04:02:47.584Z,-3.87
2023-02-06T04:05:00.501Z,-3.87
2023-02-06T04:07:19.942Z,-3.86
2023-02-06T04:09:32.581Z,-3.82
2023-02-06T04:11:45.096Z,-3.75
2023-02-06T04:13:57.719Z,-3.68
2023-02-06T04:16:10.294Z,-3.63
2023-02-06T04:18:24.040Z,-3.57
2023-02-06T04:20:40.796Z,-3.54
2023-02-06T04:22:53.457Z,-3.60
2023-02-06T04:25:06.473Z,-3.61
2023-02-06T04:27:19.076Z,-3.66
2023-02-06T04:29:31.824Z,-3.76
2023-02-06T04:31:44.428Z,-3.81
2023-02-06T04:33:56.980Z,-3.83
2023-02-06T04:36:09.616Z,-3.84
2023-02-06T04:38:22.186Z,-3.87
2023-02-06T04:40:34.735Z,-3.84
2023-02-06T04:42:47.348Z,-3.90
2023-02-06T04:44:59.930Z,-3.97
2023-02-06T04:47:12.798Z,-3.99
2023-02-06T04:49:25.326Z,-3.95
2023-02-06T04:51:38.614Z,-3.93
2023-02-06T04:53:51.125Z,-3.94
2023-02-06T04:56:13.702Z,-3.89
2023-02-06T04:58:26.279Z,-3.82
2023-02-06T05:00:38.908Z,-3.75
2023-02-06T05:02:51.606Z,-3.71
2023-02-06T05:05:04.498Z,-3.71
2023-02-06T05:07:17.149Z,-3.72
2023-02-06T05:09:29.701Z,-3.70
2023-02-06T05:11:42.353Z,-3.69
2023-02-06T05:13:54.827Z,-3.74
2023-02-06T05:16:10.324Z,-3.77
2023-02-06T05:18:23.064Z,-3.80
2023-02-06T05:20:35.807Z,-3.83
2023-02-06T05:22:48.319Z,-3.86
2023-02-06T05:25:00.866Z,-3.86
2023-02-06T05:27:13.776Z,-3.89
2023-02-06T05:29:26.314Z,-3.95
2023-02-06T05:31:39.025Z,-4.03
2023-02-06T05:33:55.054Z,-4.05
2023-02-06T05:36:07.950Z,-3.97
2023-02-06T05:38:20.624Z,-3.90
2023-02-06T05:40:33.152Z,-3.83
2023-02-06T05:42:45.657Z,-3.77
2023-02-06T05:44:58.185Z,-3.72
2023-02-06T05:47:10.771Z,-3.68
2023-02-06T05:49:23.313Z,-3.66
2023-02-06T05:51:35.915Z,-3.62
2023-02-06T05:53:48.524Z,-3.58
2023-02-06T05:56:01.108Z,-3.57
2023-02-06T05:58:13.675Z,-3.53
2023-02-06T06:00:26.311Z,-3.51
2023-02-06T06:02:39.094Z,-3.49
2023-02-06T06:04:51.805Z,-3.47
2023-02-06T06:07:04.426Z,-3.46
2023-02-06T06:09:16.987Z,-3.45
2023-02-06T06:11:30.402Z,-3.46
2023-02-06T06:13:42.934Z,-3.48
2023-02-06T06:15:55.466Z,-3.50
2023-02-06T06:18:08.124Z,-3.49
2023-02-06T06:20:20.736Z,-3.44
2023-02-06T06:22:33.481Z,-3.39
2023-02-06T06:24:46.000Z,-3.34
2023-02-06T06:26:59.660Z,-3.28
2023-02-06T06:29:12.238Z,-3.26
2023-02-06T06:31:24.859Z,-3.27
2023-02-06T06:33:38.971Z,-3.29
2023-02-06T06:35:51.431Z,-3.34
2023-02-06T06:38:03.917Z,-3.42
2023-02-06T06:40:16.693Z,-3.45
2023-02-06T06:42:29.469Z,-3.45
2023-02-06T06:44:42.109Z,-3.47
2023-02-06T06:46:54.627Z,-3.47
2023-02-06T06:49:07.176Z,-3.42
2023-02-06T06:51:20.112Z,-3.37
2023-02-06T06:53:33.184Z,-3.32
2023-02-06T06:55:45.981Z,-3.28
2023-02-06T06:57:58.928Z,-3.22
2023-02-06T07:00:12.658Z,-3.18
2023-02-06T07:02:25.349Z,-3.12
2023-02-06T07:04:37.900Z,-3.03
2023-02-06T07:06:50.412Z,-2.94
2023-02-06T07:09:03.522Z,-2.87
2023-02-06T07:11:16.970Z,-2.80
2023-02-06T07:13:29.527Z,-2.74
2023-02-06T07:15:43.191Z,-2.69
2023-02-06T07:17:55.902Z,-2.68
2023-02-06T07:20:09.068Z,-2.68
2023-02-06T07:22:22.012Z,-2.67
2023-02-06T07:24:34.561Z,-2.64
2023-02-06T07:26:47.142Z,-2.60
2023-02-06T07:28:59.716Z,-2.63
2023-02-06T07:31:12.282Z,-2.67
2023-02-06T07:33:24.937Z,-2.72
2023-02-06T07:35:37.645Z,-2.73
2023-02-06T07:37:53.456Z,-2.72
2023-02-06T07:40:06.505Z,-2.60
2023-02-06T07:42:19.137Z,-2.55
2023-02-06T07:44:31.682Z,-2.49
2023-02-06T07:46:44.846Z,-2.40
2023-02-06T07:48:57.726Z,-2.33
2023-02-06T07:51:14.255Z,-2.24
2023-02-06T07:53:26.780Z,-2.11
2023-02-06T07:55:39.426Z,-1.98
2023-02-06T07:57:52.023Z,-1.91
2023-02-06T08:00:05.396Z,-1.82
2023-02-06T08:02:17.986Z,-1.75
2023-02-06T08:04:35.276Z,-1.67
2023-02-06T08:06:47.922Z,-1.54
2023-02-06T08:09:00.534Z,-1.38
2023-02-06T08:11:16.008Z,-1.18
2023-02-06T08:13:28.558Z,-1.02
2023-02-06T08:15:41.477Z,-0.90
2023-02-06T08:17:54.081Z,-0.75
2023-02-06T08:20:06.805Z,-0.56
2023-02-06T08:22:19.408Z,-0.47
2023-02-06T08:24:32.019Z,-0.38
2023-02-06T08:26:44.609Z,-0.33
2023-02-06T08:29:00.633Z,-0.34
2023-02-06T08:31:16.567Z,-0.31
2023-02-06T08:33:29.225Z,-0.27
2023-02-06T08:35:41.797Z,-0.18
2023-02-06T08:37:54.301Z,-0.05
2023-02-06T08:40:08.335Z,0.14
2023-02-06T08:42:20.845Z,0.33
2023-02-06T08:44:33.819Z,0.52
2023-02-06T08:46:47.636Z,0.59
2023-02-06T08:49:05.935Z,0.55
2023-02-06T08:51:18.772Z,0.53
2023-02-06T08:53:31.975Z,0.55
2023-02-06T08:55:44.501Z,0.61
2023-02-06T08:57:57.000Z,0.69
2023-02-06T09:00:10.136Z,0.76
2023-02-06T09:02:23.271Z,0.87
2023-02-06T09:04:37.666Z,1.01
2023-02-06T09:06:52.437Z,1.12
2023-02-06T09:09:07.029Z,1.17
2023-02-06T09:11:21.400Z,1.20
2023-02-06T09:13:34.105Z,1.24
2023-02-06T09:15:53.608Z,1.27
2023-02-06T09:18:06.167Z,1.27
2023-02-06T09:20:18.812Z,1.35
2023-02-06T09:22:31.599Z,1.34
2023-02-06T09:24:44.090Z,1.41
2023-02-06T09:27:00.135Z,1.55
2023-02-06T09:29:13.649Z,1.77
2023-02-06T09:31:27.971Z,2.04
2023-02-06T09:33:40.620Z,2.21
2023-02-06T09:36:07.733Z,2.34
2023-02-06T09:38:20.251Z,2.48
2023-02-06T09:40:35.024Z,2.65
2023-02-06T09:42:48.267Z,2.74
2023-02-06T09:45:11.873Z,2.72
2023-02-06T09:47:34.088Z,2.78
2023-02-06T09:49:51.407Z,2.86
2023-02-06T09:52:42.415Z,2.86
2023-02-06T09:55:32.648Z,2.79
2023-02-06T09:58:02.274Z,2.93
2023-02-06T10:00:51.462Z,3.00
2023-02-06T10:03:34.329Z,2.97
2023-02-06T10:06:05.268Z,2.96
2023-02-06T10:08:25.870Z,2.99
2023-02-06T10:10:41.930Z,3.11
2023-02-06T10:13:13.130Z,3.10
2023-02-06T10:15:33.120Z,3.03
2023-02-06T10:17:57.660Z,2.91
2023-02-06T10:20:19.655Z,2.74
2023-02-06T10:22:50.051Z,2.62
2023-02-06T10:25:18.047Z,2.58
2023-02-06T10:27:33.630Z,2.62
2023-02-06T10:29:48.035Z,2.79
2023-02-06T10:32:15.914Z,2.98
2023-02-06T10:34:31.197Z,3.09
2023-02-06T10:37:21.184Z,3.21
2023-02-06T10:39:47.765Z,3.35
2023-02-06T10:42:05.175Z,3.43
2023-02-06T10:44:30.730Z,3.46
2023-02-06T10:46:51.272Z,3.26
2023-02-06T10:49:18.996Z,3.11
2023-02-06T10:51:35.340Z,3.08
2023-02-06T10:53:58.139Z,3.16
2023-02-06T10:56:16.560Z,3.25
2023-02-06T10:58:33.465Z,3.23
2023-02-06T11:00:48.630Z,3.20
2023-02-06T11:03:08.103Z,3.34
2023-02-06T11:05:25.095Z,3.74
2023-02-06T11:07:41.403Z,3.96
2023-02-06T11:09:54.207Z,4.08
2023-02-06T11:12:23.474Z,4.28
2023-02-06T11:14:39.895Z,4.37
2023-02-06T11:16:53.206Z,4.40
2023-02-06T11:19:24.130Z,4.42
2023-02-06T11:21:50.927Z,4.48
2023-02-06T11:24:15.050Z,4.37
2023-02-06T11:26:27.690Z,4.09
2023-02-06T11:28:52.363Z,4.08
2023-02-06T11:31:07.628Z,4.30
2023-02-06T11:33:26.002Z,4.46
2023-02-06T11:35:47.500Z,4.50
2023-02-06T11:38:24.393Z,4.51
2023-02-06T11:40:37.163Z,4.42
2023-02-06T11:42:53.021Z,4.21
2023-02-06T11:45:39.587Z,3.99
2023-02-06T11:47:52.468Z,3.64
2023-02-06T11:50:14.302Z,3.69
2023-02-06T11:52:30.745Z,3.74
2023-02-06T11:54:53.936Z,3.73
2023-02-06T11:57:22.088Z,3.58
2023-02-06T11:59:59.852Z,3.37
2023-02-06T12:02:32.058Z,3.06
2023-02-06T12:04:44.736Z,2.94
2023-02-06T12:07:16.202Z,2.91
2023-02-06T12:09:29.093Z,2.90
2023-02-06T12:11:58.963Z,3.01
2023-02-06T12:14:22.785Z,2.97
2023-02-06T12:16:39.605Z,2.80
2023-02-06T12:18:57.254Z,2.76
2023-02-06T12:21:50.458Z,2.77
2023-02-06T12:24:14.073Z,2.59
2023-02-06T12:26:31.840Z,2.43
2023-02-06T12:29:15.640Z,2.30
2023-02-06T12:31:41.464Z,2.13
2023-02-06T12:34:09.792Z,2.02
2023-02-06T12:36:30.127Z,1.85
2023-02-06T12:39:03.869Z,1.74
2023-02-06T12:41:28.586Z,1.52
2023-02-06T12:43:51.965Z,1.36
2023-02-06T12:46:14.152Z,1.29
2023-02-06T12:48:50.245Z,1.27
2023-02-06T12:51:19.451Z,1.26
2023-02-06T12:53:40.571Z,1.30
2023-02-06T12:56:00.767Z,1.31
2023-02-06T12:58:32.184Z,1.30
2023-02-06T13:01:25.791Z,1.29
2023-02-06T13:04:04.245Z,1.15
2023-02-06T13:06:27.462Z,1.12
2023-02-06T13:08:44.984Z,1.14
2023-02-06T13:11:03.613Z,1.22
2023-02-06T13:13:37.763Z,1.24
2023-02-06T13:15:54.870Z,1.18
2023-02-06T13:18:35.316Z,1.23
2023-02-06T13:21:28.409Z,1.26
2023-02-06T13:23:51.982Z,1.25
2023-02-06T13:26:05.142Z,1.25
2023-02-06T13:28:21.441Z,1.31
2023-02-06T13:30:33.981Z,1.32
2023-02-06T13:32:50.129Z,1.31
2023-02-06T13:35:12.560Z,1.27
2023-02-06T13:37:44.478Z,1.17
2023-02-06T13:40:26.457Z,1.17
2023-02-06T13:42:57.344Z,1.14
2023-02-06T13:45:19.882Z,1.13
2023-02-06T13:48:05.228Z,1.16
2023-02-06T13:50:33.736Z,1.20
2023-02-06T13:53:11.799Z,1.21
2023-02-06T13:55:53.399Z,1.10
2023-02-06T13:58:35.683Z,0.96
2023-02-06T14:00:51.086Z,0.91
2023-02-06T14:03:13.701Z,1.00
2023-02-06T14:05:39.078Z,1.03
2023-02-06T14:08:13.090Z,1.01
2023-02-06T14:10:38.960Z,1.00
2023-02-06T14:13:09.669Z,0.96
2023-02-06T14:15:41.233Z,0.89
2023-02-06T14:18:02.749Z,0.81
2023-02-06T14:20:34.605Z,0.78
2023-02-06T14:23:11.989Z,0.73
2023-02-06T14:25:59.107Z,0.68
2023-02-06T14:28:17.811Z,0.68
2023-02-06T14:30:51.725Z,0.73
2023-02-06T14:33:26.719Z,0.67
2023-02-06T14:36:00.688Z,0.62
2023-02-06T14:38:39.657Z,0.52
2023-02-06T14:40:55.053Z,0.50
2023-02-06T14:43:14.920Z,0.53
2023-02-06T14:45:43.385Z,0.52
2023-02-06T14:48:00.259Z,0.47
2023-02-06T14:50:28.243Z,0.46
2023-02-06T14:52:40.806Z,0.44
2023-02-06T14:54:53.434Z,0.48
2023-02-06T14:57:16.417Z,0.52
2023-02-06T14:59:30.644Z,0.47
2023-02-06T15:01:48.391Z,0.41
2023-02-06T15:04:16.880Z,0.38
2023-02-06T15:06:34.022Z,0.35
2023-02-06T15:08:48.543Z,0.34
2023-02-06T15:11:05.301Z,0.34
2023-02-06T15:13:24.044Z,0.34
2023-02-06T15:15:36.887Z,0.34
2023-02-06T15:18:04.638Z,0.32
2023-02-06T15:20:20.269Z,0.26
2023-02-06T15:22:35.285Z,0.26
2023-02-06T15:25:14.228Z,0.27
2023-02-06T15:27:35.709Z,0.20
2023-02-06T15:29:50.224Z,0.19
2023-02-06T15:32:22.362Z,0.18
2023-02-06T15:34:35.390Z,0.15
2023-02-06T15:36:47.992Z,0.14
2023-02-06T15:39:02.385Z,0.17
2023-02-06T15:41:15.582Z,0.17
2023-02-06T15:43:28.746Z,0.16
2023-02-06T15:45:44.035Z,0.14
2023-02-06T15:47:58.547Z,0.08
2023-02-06T15:50:17.708Z,0.04
2023-02-06T15:52:42.906Z,-0.01
2023-02-06T15:54:59.896Z,-0.09
2023-02-06T15:57:38.467Z,-0.14
2023-02-06T15:59:51.264Z,-0.23
2023-02-06T16:02:04.316Z,-0.26
2023-02-06T16:04:24.093Z,-0.29
2023-02-06T16:06:37.506Z,-0.32
2023-02-06T16:08:54.011Z,-0.37
2023-02-06T16:11:27.787Z,-0.40
2023-02-06T16:13:40.963Z,-0.44
2023-02-06T16:16:11.530Z,-0.47
2023-02-06T16:18:24.163Z,-0.51
2023-02-06T16:20:40.985Z,-0.50
2023-02-06T16:22:57.226Z,-0.50
2023-02-06T16:25:15.324Z,-0.46
2023-02-06T16:27:27.984Z,-0.47
2023-02-06T16:29:46.716Z,-0.52
2023-02-06T16:32:13.234Z,-0.60
2023-02-06T16:34:40.611Z,-0.66
2023-02-06T16:36:54.362Z,-0.70
2023-02-06T16:39:06.914Z,-0.73
2023-02-06T16:41:23.934Z,-0.75
2023-02-06T16:43:36.615Z,-0.77
2023-02-06T16:45:50.008Z,-0.74
2023-02-06T16:48:02.577Z,-0.72
2023-02-06T16:50:15.850Z,-0.72
2023-02-06T16:52:32.502Z,-0.73
2023-02-06T16:54:45.490Z,-0.78
2023-02-06T16:57:28.041Z,-0.80
2023-02-06T16:59:40.589Z,-0.89
2023-02-06T17:01:53.146Z,-0.90
2023-02-06T17:04:05.798Z,-0.87
2023-02-06T17:06:24.979Z,-0.88
2023-02-06T17:08:38.617Z,-0.90
2023-02-06T17:10:51.763Z,-0.91
2023-02-06T17:13:04.312Z,-0.95
2023-02-06T17:15:18.543Z,-0.99
2023-02-06T17:17:31.187Z,-1.03
2023-02-06T17:19:43.792Z,-1.02
2023-02-06T17:22:19.566Z,-1.03
2023-02-06T17:24:32.347Z,-1.18
2023-02-06T17:26:44.895Z,-1.16
2023-02-06T17:28:57.447Z,-1.13
2023-02-06T17:31:10.610Z,-1.10
2023-02-06T17:33:23.270Z,-1.10
2023-02-06T17:35:36.805Z,-1.10
2023-02-06T17:37:49.628Z,-1.14
2023-02-06T17:40:03.056Z,-1.18
2023-02-06T17:42:16.442Z,-1.20
2023-02-06T17:44:29.194Z,-1.22
2023-02-06T17:46:41.787Z,-1.23
2023-02-06T17:48:54.362Z,-1.28
2023-02-06T17:51:07.144Z,-1.33
2023-02-06T17:53:19.984Z,-1.40
2023-02-06T17:55:34.645Z,-1.45
2023-02-06T17:57:47.628Z,-1.50
2023-02-06T18:00:00.459Z,-1.57
2023-02-06T18:02:14.555Z,-1.61
2023-02-06T18:04:27.639Z,-1.63
2023-02-06T18:06:40.439Z,-1.67
2023-02-06T18:08:53.178Z,-1.69
2023-02-06T18:11:13.068Z,-1.70
2023-02-06T18:13:28.296Z,-1.73
2023-02-06T18:15:41.028Z,-1.76
2023-02-06T18:17:55.111Z,-1.78
2023-02-06T18:20:09.163Z,-1.82
2023-02-06T18:22:22.504Z,-1.85
2023-02-06T18:24:35.969Z,-1.93
2023-02-06T18:26:48.576Z,-1.99
2023-02-06T18:29:05.437Z,-2.02
2023-02-06T18:31:33.494Z,-2.07
2023-02-06T18:33:46.096Z,-2.14
2023-02-06T18:35:58.856Z,-2.17
2023-02-06T18:38:13.774Z,-2.19
2023-02-06T18:40:26.318Z,-2.23
2023-02-06T18:42:51.097Z,-2.27
2023-02-06T18:45:04.385Z,-2.34
2023-02-06T18:47:18.784Z,-2.38
2023-02-06T18:49:31.313Z,-2.42
2023-02-06T18:51:44.138Z,-2.46
2023-02-06T18:53:57.724Z,-2.48
2023-02-06T18:56:10.537Z,-2.52
2023-02-06T18:58:23.384Z,-2.57
2023-02-06T19:00:37.791Z,-2.63
2023-02-06T19:02:50.625Z,-2.69
2023-02-06T19:05:03.228Z,-2.77
2023-02-06T19:07:16.779Z,-2.89
2023-02-06T19:09:29.585Z,-2.94
2023-02-06T19:11:42.666Z,-2.95
2023-02-06T19:13:55.359Z,-2.95
2023-02-06T19:16:17.516Z,-2.94
2023-02-06T19:18:38.719Z,-2.97
2023-02-06T19:20:53.947Z,-3.01
2023-02-06T19:23:06.534Z,-3.03
2023-02-06T19:25:19.954Z,-3.11
2023-02-06T19:27:32.768Z,-3.18
2023-02-06T19:29:46.305Z,-3.21
2023-02-06T19:31:59.273Z,-3.27
2023-02-06T19:34:11.914Z,-3.33
2023-02-06T19:36:26.151Z,-3.39
2023-02-06T19:38:40.050Z,-3.43
2023-02-06T19:40:53.714Z,-3.49
2023-02-06T19:43:06.284Z,-3.51
2023-02-06T19:45:19.052Z,-3.50
2023-02-06T19:47:31.695Z,-3.49
2023-02-06T19:49:44.295Z,-3.48
2023-02-06T19:51:56.800Z,-3.47
2023-02-06T19:54:09.427Z,-3.46
2023-02-06T19:56:30.507Z,-3.47
2023-02-06T19:58:43.808Z,-3.57
2023-02-06T20:01:06.595Z,-3.63
2023-02-06T20:03:19.342Z,-3.69
2023-02-06T20:05:34.715Z,-3.72
2023-02-06T20:07:47.219Z,-3.75
2023-02-06T20:09:59.952Z,-3.76
2023-02-06T20:12:12.811Z,-3.78
2023-02-06T20:14:26.783Z,-3.84
2023-02-06T20:16:41.372Z,-3.89
2023-02-06T20:18:55.869Z,-3.93
2023-02-06T20:21:29.367Z,-3.95
2023-02-06T20:23:42.777Z,-3.96
2023-02-06T20:25:55.703Z,-3.97
2023-02-06T20:28:08.319Z,-3.96
2023-02-06T20:30:22.050Z,-3.97
2023-02-06T20:32:34.819Z,-3.99
2023-02-06T20:34:47.896Z,-4.00
2023-02-06T20:37:00.904Z,-3.99
2023-02-06T20:39:14.487Z,-3.97
2023-02-06T20:41:29.740Z,-3.96
2023-02-06T20:43:42.514Z,-4.01
2023-02-06T20:45:55.361Z,-4.05
2023-02-06T20:48:08.143Z,-4.07
2023-02-06T20:50:20.924Z,-4.08
2023-02-06T20:52:34.839Z,-4.10
2023-02-06T20:54:47.475Z,-4.12
2023-02-06T20:57:03.101Z,-4.17
2023-02-06T20:59:17.615Z,-4.18
2023-02-06T21:01:31.066Z,-4.19
2023-02-06T21:03:45.243Z,-4.21
2023-02-06T21:05:59.004Z,-4.22
2023-02-06T21:08:11.790Z,-4.23
2023-02-06T21:10:25.575Z,-4.24
2023-02-06T21:12:38.228Z,-4.25
2023-02-06T21:14:51.086Z,-4.26
2023-02-06T21:17:03.898Z,-4.26
2023-02-06T21:19:18.144Z,-4.27
2023-02-06T21:21:30.960Z,-4.29
2023-02-06T21:23:43.880Z,-4.32
2023-02-06T21:25:56.640Z,-4.35
2023-02-06T21:28:09.525Z,-4.38
2023-02-06T21:30:22.088Z,-4.39
2023-02-06T21:32:34.676Z,-4.40
2023-02-06T21:34:47.434Z,-4.40
2023-02-06T21:37:00.022Z,-4.43
2023-02-06T21:39:18.737Z,-4.47
2023-02-06T21:41:32.486Z,-4.50
2023-02-06T21:43:45.707Z,-4.51
2023-02-06T21:45:58.410Z,-4.51
2023-02-06T21:48:10.974Z,-4.53
2023-02-06T21:50:23.550Z,-4.59
2023-02-06T21:52:37.203Z,-4.69
2023-02-06T21:54:49.795Z,-4.78
2023-02-06T21:57:02.342Z,-4.78
2023-02-06T21:59:14.908Z,-4.78
2023-02-06T22:01:29.861Z,-4.78
2023-02-06T22:03:44.091Z,-4.82
2023-02-06T22:06:08.278Z,-4.84
2023-02-06T22:08:21.073Z,-4.86
2023-02-06T22:10:36.908Z,-4.86
2023-02-06T22:12:49.963Z,-4.87
2023-02-06T22:15:02.598Z,-4.88
2023-02-06T22:17:15.154Z,-4.90
2023-02-06T22:19:28.069Z,-4.93
2023-02-06T22:21:41.424Z,-4.98
2023-02-06T22:23:57.636Z,-5.02
2023-02-06T22:26:14.083Z,-5.03
2023-02-06T22:28:27.323Z,-5.04
2023-02-06T22:30:40.939Z,-5.04
2023-02-06T22:32:53.549Z,-5.04
2023-02-06T22:35:07.228Z,-5.07
2023-02-06T22:37:20.207Z,-5.09
2023-02-06T22:39:32.810Z,-5.13
2023-02-06T22:41:46.081Z,-5.14
2023-02-06T22:43:59.046Z,-5.15
2023-02-06T22:46:39.090Z,-5.17
2023-02-06T22:48:51.926Z,-5.23
2023-02-06T22:51:06.504Z,-5.24
2023-02-06T22:53:29.252Z,-5.31
2023-02-06T22:56:00.480Z,-5.40
2023-02-06T22:58:13.218Z,-5.43
2023-02-06T23:00:27.867Z,-5.48
2023-02-06T23:02:41.304Z,-5.55
2023-02-06T23:04:53.991Z,-5.56
2023-02-06T23:07:06.575Z,-5.62
2023-02-06T23:09:22.521Z,-5.65
2023-02-06T23:11:35.679Z,-5.69
2023-02-06T23:13:58.547Z,-5.75
2023-02-06T23:16:11.977Z,-5.80
2023-02-06T23:18:25.714Z,-5.81
2023-02-06T23:20:38.284Z,-5.85
2023-02-06T23:22:50.818Z,-5.88
2023-02-06T23:25:03.660Z,-5.89
2023-02-06T23:27:16.195Z,-5.95
2023-02-06T23:29:28.940Z,-6.02
2023-02-06T23:31:42.131Z,-6.06
2023-02-06T23:33:55.203Z,-6.06
2023-02-06T23:36:14.144Z,-6.02
2023-02-06T23:38:26.788Z,-6.00
2023-02-06T23:40:39.513Z,-5.97
2023-02-06T23:42:52.133Z,-5.94
2023-02-06T23:45:05.101Z,-5.92
2023-02-06T23:47:17.727Z,-5.93
2023-02-06T23:49:30.232Z,-5.98
2023-02-06T23:51:43.041Z,-5.99
2023-02-06T23:53:55.621Z,-5.98
2023-02-06T23:56:23.759Z,-5.98
2023-02-06T23:58:36.352Z,-6.02
